createdAt,value
2022-12-03T00:00:14.407Z,101620.97
2022-12-03T00:02:41.907Z,101621.88
2022-12-03T00:05:09.540Z,101623.47
2022-12-03T00:07:36.392Z,101630.13
2022-12-03T00:10:04.382Z,101623.28
2022-12-03T00:12:31.209Z,101622.34
2022-12-03T00:14:57.952Z,101619.31
2022-12-03T00:17:24.763Z,101619.88
2022-12-03T00:19:51.328Z,101616.91
2022-12-03T00:22:17.909Z,101617.19
2022-12-03T00:24:44.576Z,101616.13
2022-12-03T00:27:11.194Z,101617.19
2022-12-03T00:29:38.640Z,101617.31
2022-12-03T00:32:05.502Z,101609.69
2022-12-03T00:34:32.484Z,101613.72
2022-12-03T00:36:59.261Z,101615.44
2022-12-03T00:39:25.950Z,101605.28
2022-12-03T00:41:52.538Z,101604.88
2022-12-03T00:44:19.094Z,101610.00
2022-12-03T00:46:45.920Z,101599.06
2022-12-03T00:49:12.519Z,101606.50
2022-12-03T00:51:39.196Z,101612.22
2022-12-03T00:54:05.893Z,101600.47
2022-12-03T00:56:32.644Z,101613.72
2022-12-03T00:58:59.423Z,101602.78
2022-12-03T01:01:26.149Z,101609.13
2022-12-03T01:03:56.175Z,101601.47
2022-12-03T01:06:22.771Z,101615.03
2022-12-03T01:08:49.445Z,101609.81
2022-12-03T01:11:34.631Z,101607.09
2022-12-03T01:14:01.323Z,101609.22
2022-12-03T01:16:27.953Z,101614.31
2022-12-03T01:18:54.742Z,101613.50
2022-12-03T01:21:21.343Z,101613.41
2022-12-03T01:23:48.079Z,101616.13
2022-12-03T01:26:14.809Z,101621.97
2022-12-03T01:28:44.446Z,101613.31
2022-12-03T01:31:29.956Z,101609.22
2022-12-03T01:33:56.623Z,101604.22
2022-12-03T01:36:23.394Z,101608.75
2022-12-03T01:38:50.027Z,101610.31
2022-12-03T01:41:17.693Z,101618.56
2022-12-03T01:43:44.729Z,101611.94
2022-12-03T01:46:16.940Z,101619.97
2022-12-03T01:48:43.952Z,101611.63
2022-12-03T01:51:10.811Z,101613.13
2022-12-03T01:53:37.561Z,101610.91
2022-12-03T01:56:05.355Z,101606.22
2022-12-03T01:58:31.948Z,101600.88
2022-12-03T02:01:02.171Z,101596.66
2022-12-03T02:03:28.910Z,101600.56
2022-12-03T02:05:56.884Z,101596.06
2022-12-03T02:08:30.988Z,101594.03
2022-12-03T02:10:59.133Z,101598.69
2022-12-03T02:13:25.784Z,101593.56
2022-12-03T02:15:52.562Z,101599.91
2022-12-03T02:18:21.223Z,101596.88
2022-12-03T02:21:01.865Z,101595.16
2022-12-03T02:23:51.374Z,101599.88
2022-12-03T02:26:18.086Z,101591.72
2022-12-03T02:28:44.655Z,101590.81
2022-12-03T02:31:11.385Z,101585.09
2022-12-03T02:33:38.315Z,101591.63
2022-12-03T02:36:05.361Z,101585.31
2022-12-03T02:38:32.869Z,101575.53
2022-12-03T02:41:02.748Z,101586.31
2022-12-03T02:43:29.395Z,101576.97
2022-12-03T02:45:58.363Z,101563.03
2022-12-03T02:48:28.342Z,101570.75
2022-12-03T02:50:56.883Z,101577.38
2022-12-03T02:53:30.848Z,101568.34
2022-12-03T02:55:59.403Z,101569.44
2022-12-03T02:58:27.385Z,101572.56
2022-12-03T03:00:55.141Z,101561.44
2022-12-03T03:03:22.384Z,101574.38
2022-12-03T03:05:49.339Z,101571.34
2022-12-03T03:08:17.019Z,101564.44
2022-12-03T03:10:43.925Z,101564.13
2022-12-03T03:13:13.013Z,101570.56
2022-12-03T03:15:40.587Z,101567.25
2022-12-03T03:18:08.381Z,101557.50
2022-12-03T03:20:36.417Z,101561.03
2022-12-03T03:23:13.023Z,101563.91
2022-12-03T03:25:41.692Z,101562.13
2022-12-03T03:28:08.575Z,101563.25
2022-12-03T03:30:35.801Z,101564.72
2022-12-03T03:33:02.430Z,101565.63
2022-12-03T03:35:29.086Z,101557.50
2022-12-03T03:37:56.327Z,101563.00
2022-12-03T03:40:22.940Z,101566.34
2022-12-03T03:42:49.567Z,101566.34
2022-12-03T03:45:16.686Z,101570.47
2022-12-03T03:47:43.468Z,101574.97
2022-12-03T03:50:11.305Z,101556.00
2022-12-03T03:52:38.350Z,101557.03
2022-12-03T03:55:05.844Z,101564.94
2022-12-03T03:57:32.840Z,101559.94
2022-12-03T03:59:59.821Z,101548.47
2022-12-03T04:02:27.619Z,101552.19
2022-12-03T04:04:55.005Z,101555.41
2022-12-03T04:07:21.765Z,101562.59
2022-12-03T04:09:48.507Z,101549.84
2022-12-03T04:12:33.742Z,101549.56
2022-12-03T04:15:00.359Z,101545.06
2022-12-03T04:17:27.003Z,101550.25
2022-12-03T04:19:53.792Z,101549.38
2022-12-03T04:22:39.429Z,101541.44
2022-12-03T04:25:26.412Z,101547.84
2022-12-03T04:28:12.287Z,101548.13
2022-12-03T04:30:39.418Z,101550.66
2022-12-03T04:33:24.789Z,101548.38
2022-12-03T04:35:51.566Z,101544.03
2022-12-03T04:38:18.318Z,101541.66
2022-12-03T04:41:03.837Z,101538.22
2022-12-03T04:43:32.940Z,101529.19
2022-12-03T04:46:00.494Z,101539.22
2022-12-03T04:48:27.346Z,101540.03
2022-12-03T04:50:55.250Z,101532.09
2022-12-03T04:53:21.882Z,101536.84
2022-12-03T04:55:48.544Z,101524.94
2022-12-03T04:58:15.148Z,101529.06
2022-12-03T05:00:41.753Z,101526.78
2022-12-03T05:03:08.367Z,101534.22
2022-12-03T05:05:35.027Z,101526.28
2022-12-03T05:08:01.826Z,101533.00
2022-12-03T05:10:28.475Z,101543.66
2022-12-03T05:12:55.054Z,101534.50
2022-12-03T05:15:21.683Z,101530.00
2022-12-03T05:17:48.323Z,101536.84
2022-12-03T05:20:53.023Z,101537.53
2022-12-03T05:23:20.746Z,101530.41
2022-12-03T05:25:47.446Z,101531.38
2022-12-03T05:28:14.205Z,101525.06
2022-12-03T05:30:41.082Z,101528.78
2022-12-03T05:33:07.773Z,101524.66
2022-12-03T05:35:34.410Z,101534.50
2022-12-03T05:38:01.139Z,101514.22
2022-12-03T05:40:27.800Z,101528.59
2022-12-03T05:42:54.570Z,101521.94
2022-12-03T05:45:25.245Z,101521.66
2022-12-03T05:47:53.206Z,101522.56
2022-12-03T05:50:21.119Z,101518.03
2022-12-03T05:52:47.900Z,101527.97
2022-12-03T05:55:15.445Z,101519.44
2022-12-03T05:57:42.099Z,101521.16
2022-12-03T06:00:14.438Z,101528.41
2022-12-03T06:02:41.253Z,101526.28
2022-12-03T06:05:09.579Z,101526.28
2022-12-03T06:07:36.313Z,101535.41
2022-12-03T06:10:07.199Z,101524.78
2022-12-03T06:12:33.858Z,101528.72
2022-12-03T06:15:00.659Z,101519.16
2022-12-03T06:17:27.888Z,101536.03
2022-12-03T06:19:54.500Z,101524.38
2022-12-03T06:22:21.193Z,101522.44
2022-12-03T06:24:47.860Z,101524.38
2022-12-03T06:27:14.508Z,101520.97
2022-12-03T06:29:41.214Z,101517.84
2022-12-03T06:32:07.811Z,101517.53
2022-12-03T06:34:34.605Z,101515.91
2022-12-03T06:37:01.250Z,101515.41
2022-12-03T06:39:27.839Z,101510.44
2022-12-03T06:41:54.550Z,101506.09
2022-12-03T06:44:21.501Z,101499.19
2022-12-03T06:46:48.191Z,101504.38
2022-12-03T06:49:14.815Z,101493.44
2022-12-03T06:51:41.588Z,101497.34
2022-12-03T06:54:08.218Z,101507.41
2022-12-03T06:56:51.694Z,101506.50
2022-12-03T06:59:18.345Z,101508.09
2022-12-03T07:01:44.975Z,101513.63
2022-12-03T07:04:12.258Z,101508.22
2022-12-03T07:06:38.895Z,101523.56
2022-12-03T07:09:05.647Z,101521.34
2022-12-03T07:11:33.365Z,101515.03
2022-12-03T07:14:04.985Z,101524.69
2022-12-03T07:16:32.585Z,101516.34
2022-12-03T07:18:59.225Z,101514.13
2022-12-03T07:21:25.850Z,101511.94
2022-12-03T07:23:52.487Z,101514.13
2022-12-03T07:26:19.293Z,101524.47
2022-12-03T07:28:48.183Z,101516.84
2022-12-03T07:31:15.285Z,101510.13
2022-12-03T07:33:42.363Z,101505.28
2022-12-03T07:36:09.567Z,101520.16
2022-12-03T07:38:36.635Z,101511.31
2022-12-03T07:41:03.329Z,101518.25
2022-12-03T07:43:29.952Z,101519.75
2022-12-03T07:45:56.608Z,101517.00
2022-12-03T07:48:23.265Z,101526.59
2022-12-03T07:50:49.911Z,101523.75
2022-12-03T07:53:16.630Z,101501.50
2022-12-03T07:55:43.256Z,101504.53
2022-12-03T07:58:09.840Z,101504.50
2022-12-03T08:00:36.703Z,101500.19
2022-12-03T08:03:03.350Z,101510.09
2022-12-03T08:05:30.254Z,101504.97
2022-12-03T08:08:05.778Z,101509.03
2022-12-03T08:10:32.523Z,101511.00
2022-12-03T08:12:59.393Z,101515.53
2022-12-03T08:15:31.162Z,101513.34
2022-12-03T08:18:08.313Z,101523.97
2022-12-03T08:20:38.779Z,101516.69
2022-12-03T08:23:20.260Z,101513.75
2022-12-03T08:25:47.353Z,101515.19
2022-12-03T08:28:16.990Z,101518.03
2022-12-03T08:30:45.778Z,101509.69
2022-12-03T08:33:19.578Z,101509.09
2022-12-03T08:35:50.119Z,101515.44
2022-12-03T08:38:19.204Z,101507.47
2022-12-03T08:40:47.268Z,101512.19
2022-12-03T08:43:26.747Z,101510.22
2022-12-03T08:45:55.174Z,101511.28
2022-12-03T08:48:33.377Z,101515.56
2022-12-03T08:51:15.407Z,101507.69
2022-12-03T08:53:43.315Z,101510.69
2022-12-03T08:56:22.072Z,101507.88
2022-12-03T08:58:52.709Z,101513.28
2022-12-03T09:01:34.311Z,101519.50
2022-12-03T09:04:22.666Z,101518.59
2022-12-03T09:06:49.856Z,101512.59
2022-12-03T09:09:16.742Z,101512.63
2022-12-03T09:11:43.434Z,101514.97
2022-12-03T09:14:15.140Z,101522.25
2022-12-03T09:16:44.924Z,101516.47
2022-12-03T09:19:11.717Z,101515.09
2022-12-03T09:21:38.303Z,101522.13
2022-12-03T09:24:05.233Z,101532.63
2022-12-03T09:26:31.940Z,101523.22
2022-12-03T09:28:58.554Z,101512.03
2022-12-03T09:31:25.225Z,101522.09
2022-12-03T09:33:51.928Z,101515.53
2022-12-03T09:36:18.729Z,101512.56
2022-12-03T09:38:47.851Z,101520.81
2022-12-03T09:41:15.015Z,101518.09
2022-12-03T09:46:29.102Z,101520.38
2022-12-03T09:48:55.911Z,101516.78
2022-12-03T09:51:32.316Z,101512.44
2022-12-03T09:54:00.510Z,101513.84
2022-12-03T09:56:27.149Z,101504.84
2022-12-03T09:58:54.646Z,101501.88
2022-12-03T10:01:22.358Z,101497.91
2022-12-03T10:03:52.364Z,101506.84
2022-12-03T10:06:23.546Z,101498.50
2022-12-03T10:08:53.808Z,101495.97
2022-12-03T10:11:22.909Z,101500.97
2022-12-03T10:13:51.785Z,101489.13
2022-12-03T10:16:20.864Z,101481.84
2022-12-03T10:18:51.125Z,101491.28
2022-12-03T10:21:27.472Z,101488.16
2022-12-03T10:24:18.995Z,101490.28
2022-12-03T10:26:46.920Z,101475.78
2022-12-03T10:29:16.754Z,101476.94
2022-12-03T10:31:43.473Z,101467.69
2022-12-03T10:34:10.479Z,101470.56
2022-12-03T10:36:37.550Z,101471.44
2022-12-03T10:39:11.788Z,101456.97
2022-12-03T10:41:39.646Z,101449.97
2022-12-03T10:44:22.699Z,101450.00
2022-12-03T10:47:15.959Z,101450.19
2022-12-03T10:49:42.910Z,101450.81
2022-12-03T10:52:25.656Z,101444.41
2022-12-03T10:54:55.426Z,101430.91
2022-12-03T10:57:22.853Z,101421.78
2022-12-03T10:59:49.571Z,101427.84
2022-12-03T11:02:21.944Z,101415.75
2022-12-03T11:04:49.077Z,101428.22
2022-12-03T11:07:18.558Z,101421.69
2022-12-03T11:09:47.250Z,101418.75
2022-12-03T11:12:25.487Z,101418.78
2022-12-03T11:14:53.882Z,101415.25
2022-12-03T11:17:49.450Z,101414.38
2022-12-03T11:20:25.545Z,101411.22
2022-12-03T11:22:54.041Z,101414.22
2022-12-03T11:25:26.746Z,101417.22
2022-12-03T11:28:11.653Z,101411.25
2022-12-03T11:31:02.337Z,101409.31
2022-12-03T11:33:34.141Z,101406.88
2022-12-03T11:36:03.794Z,101403.28
2022-12-03T11:38:52.271Z,101398.63
2022-12-03T11:41:23.446Z,101397.47
2022-12-03T11:43:53.144Z,101393.16
2022-12-03T11:46:27.198Z,101383.28
2022-12-03T11:48:55.998Z,101388.59
2022-12-03T11:51:25.146Z,101386.72
2022-12-03T11:53:53.124Z,101389.41
2022-12-03T11:56:25.036Z,101387.59
2022-12-03T11:59:01.399Z,101382.72
2022-12-03T12:01:42.262Z,101375.34
2022-12-03T12:04:28.358Z,101378.22
2022-12-03T12:06:55.015Z,101369.75
2022-12-03T12:09:53.952Z,101370.03
2022-12-03T12:12:33.876Z,101364.22
2022-12-03T12:15:00.669Z,101367.09
2022-12-03T12:17:36.999Z,101363.72
2022-12-03T12:20:14.046Z,101354.69
2022-12-03T12:22:40.990Z,101354.22
2022-12-03T12:25:29.748Z,101352.69
2022-12-03T12:27:57.588Z,101353.88
2022-12-03T12:30:24.437Z,101344.34
2022-12-03T12:33:08.893Z,101346.03
2022-12-03T12:35:36.845Z,101336.59
2022-12-03T12:38:06.830Z,101342.56
2022-12-03T12:40:36.287Z,101336.94
2022-12-03T12:43:13.467Z,101338.66
2022-12-03T12:45:43.430Z,101345.25
2022-12-03T12:48:10.014Z,101328.59
2022-12-03T12:50:37.704Z,101327.50
2022-12-03T12:53:25.210Z,101330.16
2022-12-03T12:56:00.699Z,101330.44
2022-12-03T12:58:31.553Z,101331.00
2022-12-03T13:01:00.673Z,101327.69
2022-12-03T13:03:31.478Z,101327.66
2022-12-03T13:05:58.092Z,101334.31
2022-12-03T13:08:31.201Z,101323.50
2022-12-03T13:10:59.250Z,101314.22
2022-12-03T13:13:43.585Z,101319.91
2022-12-03T13:16:25.250Z,101313.94
2022-12-03T13:18:59.544Z,101315.31
2022-12-03T13:21:32.201Z,101314.75
2022-12-03T13:23:59.048Z,101305.25
2022-12-03T13:26:39.443Z,101316.88
2022-12-03T13:29:14.716Z,101318.38
2022-12-03T13:31:44.362Z,101302.84
2022-12-03T13:34:17.043Z,101306.00
2022-12-03T13:36:44.792Z,101304.03
2022-12-03T13:39:15.870Z,101302.13
2022-12-03T13:42:01.983Z,101297.94
2022-12-03T13:44:30.712Z,101299.91
2022-12-03T13:46:59.958Z,101295.59
2022-12-03T13:49:26.872Z,101288.63
2022-12-03T13:51:53.584Z,101292.19
2022-12-03T13:54:22.852Z,101290.22
2022-12-03T13:56:49.957Z,101286.19
2022-12-03T13:59:19.333Z,101282.41
2022-12-03T14:01:48.362Z,101292.06
2022-12-03T14:04:15.081Z,101285.56
2022-12-03T14:06:41.684Z,101288.72
2022-12-03T14:09:08.366Z,101278.34
2022-12-03T14:11:53.558Z,101291.53
2022-12-03T14:14:20.450Z,101284.09
2022-12-03T14:16:47.683Z,101277.19
2022-12-03T14:19:14.500Z,101276.84
2022-12-03T14:21:41.437Z,101276.84
2022-12-03T14:24:08.219Z,101270.28
2022-12-03T14:26:34.843Z,101280.28
2022-12-03T14:29:08.566Z,101280.91
2022-12-03T14:31:35.786Z,101279.78
2022-12-03T14:34:02.517Z,101265.38
2022-12-03T14:36:29.147Z,101271.84
2022-12-03T14:38:55.846Z,101279.53
2022-12-03T14:41:43.771Z,101282.69
2022-12-03T14:44:10.452Z,101282.69
2022-12-03T14:46:37.047Z,101284.16
2022-12-03T14:49:03.640Z,101282.69
2022-12-03T14:51:30.283Z,101275.66
2022-12-03T14:53:56.906Z,101275.44
2022-12-03T14:56:23.519Z,101273.03
2022-12-03T14:58:51.203Z,101269.34
2022-12-03T15:01:17.883Z,101277.09
2022-12-03T15:03:44.587Z,101273.75
2022-12-03T15:06:11.257Z,101271.13
2022-12-03T15:08:37.912Z,101272.56
2022-12-03T15:11:04.705Z,101272.84
2022-12-03T15:13:31.327Z,101271.69
2022-12-03T15:15:58.057Z,101278.63
2022-12-03T15:18:24.713Z,101277.13
2022-12-03T15:20:51.541Z,101275.22
2022-12-03T15:23:18.159Z,101277.72
2022-12-03T15:25:44.954Z,101268.34
2022-12-03T15:28:11.653Z,101275.00
2022-12-03T15:30:38.437Z,101271.78
2022-12-03T15:33:05.153Z,101270.56
2022-12-03T15:35:32.012Z,101266.78
2022-12-03T15:37:58.884Z,101270.28
2022-12-03T15:40:26.217Z,101262.97
2022-12-03T15:42:52.896Z,101266.34
2022-12-03T15:45:19.953Z,101274.22
2022-12-03T15:47:46.647Z,101273.06
2022-12-03T15:50:16.319Z,101274.06
2022-12-03T15:52:42.973Z,101265.34
2022-12-03T15:55:10.141Z,101271.78
2022-12-03T15:57:37.065Z,101273.41
2022-12-03T16:00:04.996Z,101276.91
2022-12-03T16:02:39.129Z,101282.00
2022-12-03T16:05:12.488Z,101274.28
2022-12-03T16:07:39.540Z,101276.91
2022-12-03T16:10:07.985Z,101277.19
2022-12-03T16:12:34.650Z,101273.84
2022-12-03T16:15:01.408Z,101276.72
2022-12-03T16:17:28.022Z,101275.66
